sensor_id;sensor_type;location;lat;lon;timestamp;P1;durP1;ratioP1;P2;durP2;ratioP2
11791;SDS011;5953;52.372;9.918;2023-02-01T00:00:08;19.47;;;3.87;;
11791;SDS011;5953;52.372;9.918;2023-02-01T00:02:36;15.77;;;3.47;;
11791;SDS011;5953;52.372;9.918;2023-02-01T00:05:09;13.10;;;3.63;;
11791;SDS011;5953;52.372;9.918;2023-02-01T00:07:37;16.87;;;3.07;;
11791;SDS011;5953;52.372;9.918;2023-02-01T00:10:06;16.93;;;3.57;;
11791;SDS011;5953;52.372;9.918;2023-02-01T00:12:35;15.57;;;3.77;;
11791;SDS011;5953;52.372;9.918;2023-02-01T00:15:02;15.23;;;3.07;;
11791;SDS011;5953;52.372;9.918;2023-02-01T00:17:30;12.33;;;3.10;;
11791;SDS011;5953;52.372;9.918;2023-02-01T00:19:58;17.40;;;3.63;;
11791;SDS011;5953;52.372;9.918;2023-02-01T00:22:27;14.47;;;3.67;;
11791;SDS011;5953;52.372;9.918;2023-02-01T00:24:55;14.47;;;3.37;;
11791;SDS011;5953;52.372;9.918;2023-02-01T00:27:23;16.67;;;3.17;;
11791;SDS011;5953;52.372;9.918;2023-02-01T00:29:50;19.77;;;4.20;;
11791;SDS011;5953;52.372;9.918;2023-02-01T00:32:18;20.03;;;2.90;;
11791;SDS011;5953;52.372;9.918;2023-02-01T00:34:46;17.03;;;3.70;;
11791;SDS011;5953;52.372;9.918;2023-02-01T00:37:14;12.83;;;2.53;;
11791;SDS011;5953;52.372;9.918;2023-02-01T00:39:43;13.07;;;2.90;;
11791;SDS011;5953;52.372;9.918;2023-02-01T00:42:10;17.13;;;3.43;;
11791;SDS011;5953;52.372;9.918;2023-02-01T00:44:38;11.60;;;3.10;;
11791;SDS011;5953;52.372;9.918;2023-02-01T00:47:06;15.40;;;3.87;;
11791;SDS011;5953;52.372;9.918;2023-02-01T00:49:33;15.30;;;3.30;;
11791;SDS011;5953;52.372;9.918;2023-02-01T00:52:01;17.50;;;3.60;;
11791;SDS011;5953;52.372;9.918;2023-02-01T00:54:29;18.97;;;3.37;;
11791;SDS011;5953;52.372;9.918;2023-02-01T00:56:58;16.03;;;3.83;;
11791;SDS011;5953;52.372;9.918;2023-02-01T00:59:26;17.10;;;3.80;;
11791;SDS011;5953;52.372;9.918;2023-02-01T01:01:54;17.33;;;4.13;;
11791;SDS011;5953;52.372;9.918;2023-02-01T01:04:22;19.23;;;4.23;;
11791;SDS011;5953;52.372;9.918;2023-02-01T01:06:49;13.93;;;3.73;;
11791;SDS011;5953;52.372;9.918;2023-02-01T01:09:17;17.33;;;3.47;;
11791;SDS011;5953;52.372;9.918;2023-02-01T01:11:45;19.13;;;3.70;;
11791;SDS011;5953;52.372;9.918;2023-02-01T01:14:14;19.63;;;4.00;;
11791;SDS011;5953;52.372;9.918;2023-02-01T01:16:41;17.97;;;3.40;;
11791;SDS011;5953;52.372;9.918;2023-02-01T01:19:10;16.57;;;3.63;;
11791;SDS011;5953;52.372;9.918;2023-02-01T01:21:38;14.10;;;3.30;;
11791;SDS011;5953;52.372;9.918;2023-02-01T01:24:05;16.53;;;3.60;;
11791;SDS011;5953;52.372;9.918;2023-02-01T01:26:33;17.50;;;3.70;;
11791;SDS011;5953;52.372;9.918;2023-02-01T01:29:01;12.97;;;3.27;;
11791;SDS011;5953;52.372;9.918;2023-02-01T01:31:30;17.27;;;4.00;;
11791;SDS011;5953;52.372;9.918;2023-02-01T01:33:58;15.17;;;3.93;;
11791;SDS011;5953;52.372;9.918;2023-02-01T01:36:27;11.73;;;3.40;;
11791;SDS011;5953;52.372;9.918;2023-02-01T01:38:56;13.53;;;4.30;;
11791;SDS011;5953;52.372;9.918;2023-02-01T01:41:25;14.80;;;3.67;;
11791;SDS011;5953;52.372;9.918;2023-02-01T01:43:56;18.57;;;3.87;;
11791;SDS011;5953;52.372;9.918;2023-02-01T01:46:26;18.20;;;3.43;;
11791;SDS011;5953;52.372;9.918;2023-02-01T01:49:01;21.23;;;3.87;;
11791;SDS011;5953;52.372;9.918;2023-02-01T01:51:33;18.70;;;3.43;;
11791;SDS011;5953;52.372;9.918;2023-02-01T01:54:06;17.10;;;3.80;;
11791;SDS011;5953;52.372;9.918;2023-02-01T01:56:39;16.23;;;3.83;;
11791;SDS011;5953;52.372;9.918;2023-02-01T01:59:08;16.63;;;4.00;;
11791;SDS011;5953;52.372;9.918;2023-02-01T02:01:36;18.57;;;4.20;;
11791;SDS011;5953;52.372;9.918;2023-02-01T02:04:05;20.93;;;3.87;;
11791;SDS011;5953;52.372;9.918;2023-02-01T02:06:36;18.23;;;4.80;;
11791;SDS011;5953;52.372;9.918;2023-02-01T02:09:07;16.67;;;4.13;;
11791;SDS011;5953;52.372;9.918;2023-02-01T02:11:35;15.30;;;3.17;;
11791;SDS011;5953;52.372;9.918;2023-02-01T02:14:03;16.63;;;4.53;;
11791;SDS011;5953;52.372;9.918;2023-02-01T02:16:40;16.90;;;3.60;;
11791;SDS011;5953;52.372;9.918;2023-02-01T02:22:30;16.77;;;3.60;;
11791;SDS011;5953;52.372;9.918;2023-02-01T02:31:58;17.87;;;3.93;;
11791;SDS011;5953;52.372;9.918;2023-02-01T02:34:40;18.13;;;3.90;;
11791;SDS011;5953;52.372;9.918;2023-02-01T02:37:15;15.47;;;3.57;;
11791;SDS011;5953;52.372;9.918;2023-02-01T02:39:53;13.97;;;3.40;;
11791;SDS011;5953;52.372;9.918;2023-02-01T02:42:27;23.70;;;3.63;;
11791;SDS011;5953;52.372;9.918;2023-02-01T02:45:17;15.40;;;3.77;;
11791;SDS011;5953;52.372;9.918;2023-02-01T02:48:08;15.10;;;3.23;;
11791;SDS011;5953;52.372;9.918;2023-02-01T02:50:43;16.23;;;3.50;;
11791;SDS011;5953;52.372;9.918;2023-02-01T02:53:35;13.43;;;3.47;;
11791;SDS011;5953;52.372;9.918;2023-02-01T02:56:24;22.30;;;3.60;;
11791;SDS011;5953;52.372;9.918;2023-02-01T02:59:12;16.33;;;3.37;;
11791;SDS011;5953;52.372;9.918;2023-02-01T03:02:00;18.03;;;3.57;;
11791;SDS011;5953;52.372;9.918;2023-02-01T03:04:46;12.70;;;3.03;;
11791;SDS011;5953;52.372;9.918;2023-02-01T03:07:42;15.53;;;3.20;;
11791;SDS011;5953;52.372;9.918;2023-02-01T03:10:32;20.10;;;3.20;;
11791;SDS011;5953;52.372;9.918;2023-02-01T03:13:06;10.47;;;2.80;;
11791;SDS011;5953;52.372;9.918;2023-02-01T03:15:36;13.17;;;3.30;;
11791;SDS011;5953;52.372;9.918;2023-02-01T03:18:10;13.53;;;2.53;;
11791;SDS011;5953;52.372;9.918;2023-02-01T03:20:43;22.10;;;3.53;;
11791;SDS011;5953;52.372;9.918;2023-02-01T03:23:15;14.13;;;2.97;;
11791;SDS011;5953;52.372;9.918;2023-02-01T03:25:46;13.60;;;3.20;;
11791;SDS011;5953;52.372;9.918;2023-02-01T03:28:15;13.93;;;3.50;;
11791;SDS011;5953;52.372;9.918;2023-02-01T03:30:47;18.60;;;4.10;;
11791;SDS011;5953;52.372;9.918;2023-02-01T03:33:17;9.50;;;3.43;;
11791;SDS011;5953;52.372;9.918;2023-02-01T03:35:52;13.20;;;3.60;;
11791;SDS011;5953;52.372;9.918;2023-02-01T03:38:29;12.30;;;3.43;;
11791;SDS011;5953;52.372;9.918;2023-02-01T03:41:01;15.40;;;4.63;;
11791;SDS011;5953;52.372;9.918;2023-02-01T03:43:37;12.80;;;3.20;;
11791;SDS011;5953;52.372;9.918;2023-02-01T03:46:15;15.27;;;3.27;;
11791;SDS011;5953;52.372;9.918;2023-02-01T03:48:48;8.53;;;3.00;;
11791;SDS011;5953;52.372;9.918;2023-02-01T03:51:19;14.40;;;3.87;;
11791;SDS011;5953;52.372;9.918;2023-02-01T03:53:49;13.60;;;3.83;;
11791;SDS011;5953;52.372;9.918;2023-02-01T03:56:20;17.53;;;3.97;;
11791;SDS011;5953;52.372;9.918;2023-02-01T03:58:49;13.60;;;3.57;;
11791;SDS011;5953;52.372;9.918;2023-02-01T04:01:26;19.10;;;4.40;;
11791;SDS011;5953;52.372;9.918;2023-02-01T04:03:55;11.10;;;3.20;;
11791;SDS011;5953;52.372;9.918;2023-02-01T04:06:24;14.40;;;2.70;;
11791;SDS011;5953;52.372;9.918;2023-02-01T04:08:54;15.10;;;3.53;;
11791;SDS011;5953;52.372;9.918;2023-02-01T04:11:21;14.47;;;3.23;;
11791;SDS011;5953;52.372;9.918;2023-02-01T04:13:49;19.20;;;4.10;;
11791;SDS011;5953;52.372;9.918;2023-02-01T04:16:17;17.73;;;3.97;;
11791;SDS011;5953;52.372;9.918;2023-02-01T04:18:45;18.17;;;3.90;;
11791;SDS011;5953;52.372;9.918;2023-02-01T04:21:13;15.83;;;3.13;;
11791;SDS011;5953;52.372;9.918;2023-02-01T04:23:40;18.97;;;3.87;;
11791;SDS011;5953;52.372;9.918;2023-02-01T04:26:10;16.67;;;4.00;;
11791;SDS011;5953;52.372;9.918;2023-02-01T04:28:37;18.40;;;4.90;;
11791;SDS011;5953;52.372;9.918;2023-02-01T04:31:05;18.27;;;4.27;;
11791;SDS011;5953;52.372;9.918;2023-02-01T04:33:33;19.43;;;4.23;;
11791;SDS011;5953;52.372;9.918;2023-02-01T04:36:01;18.03;;;3.30;;
11791;SDS011;5953;52.372;9.918;2023-02-01T04:38:29;18.63;;;5.10;;
11791;SDS011;5953;52.372;9.918;2023-02-01T04:40:58;12.30;;;4.00;;
11791;SDS011;5953;52.372;9.918;2023-02-01T04:43:27;17.13;;;3.73;;
11791;SDS011;5953;52.372;9.918;2023-02-01T04:45:55;14.27;;;3.30;;
11791;SDS011;5953;52.372;9.918;2023-02-01T04:48:23;11.27;;;3.17;;
11791;SDS011;5953;52.372;9.918;2023-02-01T04:50:51;11.43;;;3.50;;
11791;SDS011;5953;52.372;9.918;2023-02-01T04:53:19;15.10;;;4.13;;
11791;SDS011;5953;52.372;9.918;2023-02-01T04:55:47;14.47;;;3.70;;
11791;SDS011;5953;52.372;9.918;2023-02-01T04:58:16;13.63;;;3.37;;
11791;SDS011;5953;52.372;9.918;2023-02-01T05:00:48;15.20;;;3.83;;
11791;SDS011;5953;52.372;9.918;2023-02-01T05:03:30;18.23;;;4.50;;
11791;SDS011;5953;52.372;9.918;2023-02-01T05:05:58;15.03;;;5.00;;
11791;SDS011;5953;52.372;9.918;2023-02-01T05:08:26;15.83;;;4.77;;
11791;SDS011;5953;52.372;9.918;2023-02-01T05:10:55;18.13;;;3.60;;
11791;SDS011;5953;52.372;9.918;2023-02-01T05:13:23;15.20;;;3.90;;
11791;SDS011;5953;52.372;9.918;2023-02-01T05:16:10;13.83;;;4.17;;
11791;SDS011;5953;52.372;9.918;2023-02-01T05:18:38;20.27;;;4.90;;
11791;SDS011;5953;52.372;9.918;2023-02-01T05:21:06;14.43;;;4.10;;
11791;SDS011;5953;52.372;9.918;2023-02-01T05:23:33;16.17;;;4.70;;
11791;SDS011;5953;52.372;9.918;2023-02-01T05:26:23;15.27;;;4.50;;
11791;SDS011;5953;52.372;9.918;2023-02-01T05:28:51;13.57;;;4.10;;
11791;SDS011;5953;52.372;9.918;2023-02-01T05:31:38;17.50;;;4.07;;
11791;SDS011;5953;52.372;9.918;2023-02-01T05:34:13;14.73;;;4.20;;
11791;SDS011;5953;52.372;9.918;2023-02-01T05:37:13;17.83;;;5.00;;
11791;SDS011;5953;52.372;9.918;2023-02-01T05:40:07;14.90;;;4.53;;
11791;SDS011;5953;52.372;9.918;2023-02-01T05:42:44;15.67;;;4.03;;
11791;SDS011;5953;52.372;9.918;2023-02-01T05:45:28;14.17;;;3.80;;
11791;SDS011;5953;52.372;9.918;2023-02-01T05:47:59;11.90;;;4.17;;
11791;SDS011;5953;52.372;9.918;2023-02-01T05:50:30;12.03;;;3.53;;
11791;SDS011;5953;52.372;9.918;2023-02-01T05:53:00;19.93;;;4.00;;
11791;SDS011;5953;52.372;9.918;2023-02-01T05:55:32;13.97;;;3.60;;
11791;SDS011;5953;52.372;9.918;2023-02-01T05:58:00;14.17;;;4.20;;
11791;SDS011;5953;52.372;9.918;2023-02-01T06:00:31;19.43;;;4.13;;
11791;SDS011;5953;52.372;9.918;2023-02-01T06:03:18;14.30;;;3.73;;
11791;SDS011;5953;52.372;9.918;2023-02-01T06:05:52;16.90;;;4.07;;
11791;SDS011;5953;52.372;9.918;2023-02-01T06:08:24;16.50;;;3.70;;
11791;SDS011;5953;52.372;9.918;2023-02-01T06:10:58;17.00;;;3.77;;
11791;SDS011;5953;52.372;9.918;2023-02-01T06:13:43;19.17;;;4.33;;
11791;SDS011;5953;52.372;9.918;2023-02-01T06:16:11;13.73;;;3.70;;
11791;SDS011;5953;52.372;9.918;2023-02-01T06:18:45;14.23;;;3.17;;
11791;SDS011;5953;52.372;9.918;2023-02-01T06:21:23;21.67;;;3.77;;
11791;SDS011;5953;52.372;9.918;2023-02-01T06:23:52;14.20;;;3.70;;
11791;SDS011;5953;52.372;9.918;2023-02-01T06:26:24;10.53;;;3.20;;
11791;SDS011;5953;52.372;9.918;2023-02-01T06:28:52;14.03;;;3.77;;
11791;SDS011;5953;52.372;9.918;2023-02-01T06:31:21;17.23;;;3.47;;
11791;SDS011;5953;52.372;9.918;2023-02-01T06:33:55;14.17;;;3.90;;
11791;SDS011;5953;52.372;9.918;2023-02-01T06:36:36;13.43;;;3.93;;
11791;SDS011;5953;52.372;9.918;2023-02-01T06:39:05;11.73;;;3.27;;
11791;SDS011;5953;52.372;9.918;2023-02-01T06:41:34;13.20;;;3.20;;
11791;SDS011;5953;52.372;9.918;2023-02-01T06:44:12;12.37;;;3.73;;
11791;SDS011;5953;52.372;9.918;2023-02-01T06:46:56;6.87;;;2.67;;
11791;SDS011;5953;52.372;9.918;2023-02-01T06:49:38;9.93;;;3.30;;
11791;SDS011;5953;52.372;9.918;2023-02-01T06:52:19;8.30;;;3.00;;
11791;SDS011;5953;52.372;9.918;2023-02-01T06:54:47;9.80;;;2.80;;
11791;SDS011;5953;52.372;9.918;2023-02-01T06:57:18;7.27;;;3.07;;
11791;SDS011;5953;52.372;9.918;2023-02-01T06:59:46;10.77;;;2.63;;
11791;SDS011;5953;52.372;9.918;2023-02-01T07:02:23;13.10;;;2.97;;
11791;SDS011;5953;52.372;9.918;2023-02-01T07:04:58;10.07;;;3.47;;
11791;SDS011;5953;52.372;9.918;2023-02-01T07:07:29;8.03;;;2.93;;
11791;SDS011;5953;52.372;9.918;2023-02-01T07:09:57;9.00;;;2.73;;
11791;SDS011;5953;52.372;9.918;2023-02-01T07:12:36;7.77;;;3.20;;
11791;SDS011;5953;52.372;9.918;2023-02-01T07:15:05;7.77;;;2.90;;
11791;SDS011;5953;52.372;9.918;2023-02-01T07:17:34;8.17;;;2.50;;
11791;SDS011;5953;52.372;9.918;2023-02-01T07:20:11;10.40;;;3.00;;
11791;SDS011;5953;52.372;9.918;2023-02-01T07:22:39;12.13;;;3.37;;
11791;SDS011;5953;52.372;9.918;2023-02-01T07:25:10;10.07;;;2.80;;
11791;SDS011;5953;52.372;9.918;2023-02-01T07:27:37;14.50;;;3.77;;
11791;SDS011;5953;52.372;9.918;2023-02-01T07:30:10;15.37;;;3.23;;
11791;SDS011;5953;52.372;9.918;2023-02-01T07:32:43;11.63;;;3.20;;
11791;SDS011;5953;52.372;9.918;2023-02-01T07:35:31;9.27;;;2.83;;
11791;SDS011;5953;52.372;9.918;2023-02-01T07:38:00;17.20;;;3.93;;
11791;SDS011;5953;52.372;9.918;2023-02-01T07:40:28;12.77;;;3.97;;
11791;SDS011;5953;52.372;9.918;2023-02-01T07:43:02;8.93;;;3.50;;
11791;SDS011;5953;52.372;9.918;2023-02-01T07:48:39;14.70;;;4.40;;
11791;SDS011;5953;52.372;9.918;2023-02-01T07:51:15;11.63;;;3.67;;
11791;SDS011;5953;52.372;9.918;2023-02-01T07:54:07;10.07;;;3.90;;
11791;SDS011;5953;52.372;9.918;2023-02-01T07:56:57;13.10;;;3.63;;
11791;SDS011;5953;52.372;9.918;2023-02-01T07:59:58;12.77;;;3.97;;
11791;SDS011;5953;52.372;9.918;2023-02-01T08:02:41;16.83;;;4.10;;
11791;SDS011;5953;52.372;9.918;2023-02-01T08:05:29;13.50;;;3.37;;
11791;SDS011;5953;52.372;9.918;2023-02-01T08:08:11;13.90;;;3.47;;
11791;SDS011;5953;52.372;9.918;2023-02-01T08:10:46;12.60;;;4.13;;
11791;SDS011;5953;52.372;9.918;2023-02-01T08:13:38;19.13;;;4.20;;
11791;SDS011;5953;52.372;9.918;2023-02-01T08:16:08;16.17;;;3.90;;
11791;SDS011;5953;52.372;9.918;2023-02-01T08:18:42;17.33;;;5.00;;
11791;SDS011;5953;52.372;9.918;2023-02-01T08:21:27;18.13;;;3.57;;
11791;SDS011;5953;52.372;9.918;2023-02-01T08:24:11;14.20;;;4.13;;
11791;SDS011;5953;52.372;9.918;2023-02-01T08:26:57;12.00;;;2.70;;
11791;SDS011;5953;52.372;9.918;2023-02-01T08:33:22;11.40;;;3.50;;
11791;SDS011;5953;52.372;9.918;2023-02-01T08:35:55;11.50;;;3.50;;
11791;SDS011;5953;52.372;9.918;2023-02-01T08:38:35;13.10;;;3.13;;
11791;SDS011;5953;52.372;9.918;2023-02-01T08:41:16;11.80;;;3.40;;
11791;SDS011;5953;52.372;9.918;2023-02-01T08:43:54;13.50;;;3.30;;
11791;SDS011;5953;52.372;9.918;2023-02-01T08:46:25;15.03;;;3.50;;
11791;SDS011;5953;52.372;9.918;2023-02-01T08:48:54;11.87;;;3.17;;
11791;SDS011;5953;52.372;9.918;2023-02-01T08:51:22;18.47;;;3.40;;
11791;SDS011;5953;52.372;9.918;2023-02-01T08:53:54;10.33;;;3.27;;
11791;SDS011;5953;52.372;9.918;2023-02-01T08:56:27;16.40;;;3.63;;
11791;SDS011;5953;52.372;9.918;2023-02-01T08:58:55;17.53;;;4.13;;
11791;SDS011;5953;52.372;9.918;2023-02-01T09:01:24;13.13;;;3.13;;
11791;SDS011;5953;52.372;9.918;2023-02-01T09:03:52;17.43;;;3.77;;
11791;SDS011;5953;52.372;9.918;2023-02-01T09:06:21;15.90;;;4.67;;
11791;SDS011;5953;52.372;9.918;2023-02-01T09:08:55;13.13;;;3.20;;
11791;SDS011;5953;52.372;9.918;2023-02-01T09:11:38;16.13;;;3.83;;
11791;SDS011;5953;52.372;9.918;2023-02-01T09:14:06;10.13;;;3.80;;
11791;SDS011;5953;52.372;9.918;2023-02-01T09:16:36;10.80;;;3.37;;
11791;SDS011;5953;52.372;9.918;2023-02-01T09:19:05;7.83;;;2.97;;
11791;SDS011;5953;52.372;9.918;2023-02-01T09:21:54;9.30;;;3.57;;
11791;SDS011;5953;52.372;9.918;2023-02-01T09:24:22;18.27;;;4.27;;
11791;SDS011;5953;52.372;9.918;2023-02-01T09:26:54;13.53;;;3.13;;
11791;SDS011;5953;52.372;9.918;2023-02-01T09:29:22;13.03;;;3.03;;
11791;SDS011;5953;52.372;9.918;2023-02-01T09:31:50;10.80;;;3.00;;
11791;SDS011;5953;52.372;9.918;2023-02-01T09:34:31;8.37;;;2.60;;
11791;SDS011;5953;52.372;9.918;2023-02-01T09:37:01;10.63;;;2.97;;
11791;SDS011;5953;52.372;9.918;2023-02-01T09:39:30;13.43;;;3.00;;
11791;SDS011;5953;52.372;9.918;2023-02-01T09:42:02;9.50;;;3.10;;
11791;SDS011;5953;52.372;9.918;2023-02-01T09:44:48;5.80;;;2.20;;
11791;SDS011;5953;52.372;9.918;2023-02-01T09:47:24;10.37;;;3.30;;
11791;SDS011;5953;52.372;9.918;2023-02-01T09:49:55;10.43;;;2.73;;
11791;SDS011;5953;52.372;9.918;2023-02-01T09:52:28;9.03;;;3.00;;
11791;SDS011;5953;52.372;9.918;2023-02-01T09:55:06;10.93;;;2.87;;
11791;SDS011;5953;52.372;9.918;2023-02-01T09:57:50;11.10;;;3.53;;
11791;SDS011;5953;52.372;9.918;2023-02-01T10:00:24;11.73;;;3.03;;
11791;SDS011;5953;52.372;9.918;2023-02-01T10:02:54;11.03;;;2.90;;
11791;SDS011;5953;52.372;9.918;2023-02-01T10:05:28;15.63;;;3.60;;
11791;SDS011;5953;52.372;9.918;2023-02-01T10:08:08;11.20;;;2.93;;
11791;SDS011;5953;52.372;9.918;2023-02-01T10:10:46;11.97;;;3.13;;
11791;SDS011;5953;52.372;9.918;2023-02-01T10:13:25;8.83;;;2.83;;
11791;SDS011;5953;52.372;9.918;2023-02-01T10:16:06;7.63;;;2.33;;
11791;SDS011;5953;52.372;9.918;2023-02-01T10:18:57;12.10;;;2.90;;
11791;SDS011;5953;52.372;9.918;2023-02-01T10:21:36;11.53;;;3.40;;
11791;SDS011;5953;52.372;9.918;2023-02-01T10:27:12;11.57;;;3.10;;
11791;SDS011;5953;52.372;9.918;2023-02-01T10:29:44;12.20;;;3.27;;
11791;SDS011;5953;52.372;9.918;2023-02-01T10:32:17;11.00;;;3.23;;
11791;SDS011;5953;52.372;9.918;2023-02-01T10:34:48;11.90;;;3.03;;
11791;SDS011;5953;52.372;9.918;2023-02-01T10:37:23;11.30;;;2.70;;
11791;SDS011;5953;52.372;9.918;2023-02-01T10:39:55;13.67;;;3.00;;
11791;SDS011;5953;52.372;9.918;2023-02-01T10:42:25;10.33;;;3.23;;
11791;SDS011;5953;52.372;9.918;2023-02-01T10:44:57;9.90;;;2.60;;
11791;SDS011;5953;52.372;9.918;2023-02-01T10:47:28;12.27;;;2.80;;
11791;SDS011;5953;52.372;9.918;2023-02-01T10:49:58;12.30;;;2.93;;
11791;SDS011;5953;52.372;9.918;2023-02-01T10:52:42;11.53;;;2.63;;
11791;SDS011;5953;52.372;9.918;2023-02-01T10:58:00;8.37;;;3.17;;
11791;SDS011;5953;52.372;9.918;2023-02-01T11:00:36;12.10;;;2.93;;
11791;SDS011;5953;52.372;9.918;2023-02-01T11:06:18;10.87;;;3.40;;
11791;SDS011;5953;52.372;9.918;2023-02-01T11:08:51;7.33;;;2.37;;
11791;SDS011;5953;52.372;9.918;2023-02-01T11:11:20;11.53;;;3.67;;
11791;SDS011;5953;52.372;9.918;2023-02-01T11:13:52;9.90;;;2.33;;
11791;SDS011;5953;52.372;9.918;2023-02-01T11:16:29;12.90;;;3.07;;
11791;SDS011;5953;52.372;9.918;2023-02-01T11:19:01;14.30;;;3.23;;
11791;SDS011;5953;52.372;9.918;2023-02-01T11:21:30;10.70;;;2.40;;
11791;SDS011;5953;52.372;9.918;2023-02-01T11:24:00;9.97;;;3.10;;
11791;SDS011;5953;52.372;9.918;2023-02-01T11:26:32;12.03;;;3.10;;
11791;SDS011;5953;52.372;9.918;2023-02-01T11:29:05;9.27;;;2.93;;
11791;SDS011;5953;52.372;9.918;2023-02-01T11:31:44;10.73;;;3.30;;
11791;SDS011;5953;52.372;9.918;2023-02-01T11:34:14;11.40;;;2.67;;
11791;SDS011;5953;52.372;9.918;2023-02-01T11:37:00;13.33;;;2.73;;
11791;SDS011;5953;52.372;9.918;2023-02-01T11:39:31;11.93;;;2.73;;
11791;SDS011;5953;52.372;9.918;2023-02-01T11:42:01;11.23;;;2.37;;
11791;SDS011;5953;52.372;9.918;2023-02-01T11:44:33;13.07;;;2.67;;
11791;SDS011;5953;52.372;9.918;2023-02-01T11:47:19;10.07;;;2.80;;
11791;SDS011;5953;52.372;9.918;2023-02-01T11:49:49;14.00;;;3.33;;
11791;SDS011;5953;52.372;9.918;2023-02-01T11:55:15;8.97;;;2.47;;
11791;SDS011;5953;52.372;9.918;2023-02-01T11:58:00;9.53;;;2.77;;
11791;SDS011;5953;52.372;9.918;2023-02-01T12:03:45;8.07;;;2.70;;
11791;SDS011;5953;52.372;9.918;2023-02-01T12:06:37;11.07;;;3.00;;
11791;SDS011;5953;52.372;9.918;2023-02-01T12:12:34;11.03;;;3.30;;
11791;SDS011;5953;52.372;9.918;2023-02-01T12:15:53;9.77;;;3.37;;
11791;SDS011;5953;52.372;9.918;2023-02-01T12:18:39;8.57;;;2.63;;
11791;SDS011;5953;52.372;9.918;2023-02-01T12:21:36;9.07;;;2.93;;
11791;SDS011;5953;52.372;9.918;2023-02-01T12:25:06;12.47;;;2.73;;
11791;SDS011;5953;52.372;9.918;2023-02-01T12:28:22;9.67;;;3.63;;
11791;SDS011;5953;52.372;9.918;2023-02-01T12:34:07;11.13;;;3.37;;
11791;SDS011;5953;52.372;9.918;2023-02-01T12:36:48;14.10;;;3.87;;
11791;SDS011;5953;52.372;9.918;2023-02-01T12:43:37;10.70;;;2.50;;
11791;SDS011;5953;52.372;9.918;2023-02-01T12:46:15;10.37;;;2.53;;
11791;SDS011;5953;52.372;9.918;2023-02-01T12:48:52;9.53;;;2.87;;
11791;SDS011;5953;52.372;9.918;2023-02-01T12:51:41;7.67;;;2.83;;
11791;SDS011;5953;52.372;9.918;2023-02-01T12:55:34;6.97;;;2.10;;
11791;SDS011;5953;52.372;9.918;2023-02-01T12:58:29;9.97;;;2.70;;
11791;SDS011;5953;52.372;9.918;2023-02-01T13:01:40;12.13;;;2.90;;
11791;SDS011;5953;52.372;9.918;2023-02-01T13:04:55;8.40;;;3.43;;
11791;SDS011;5953;52.372;9.918;2023-02-01T13:11:03;12.33;;;2.77;;
11791;SDS011;5953;52.372;9.918;2023-02-01T13:13:36;8.23;;;2.73;;
11791;SDS011;5953;52.372;9.918;2023-02-01T13:16:13;9.17;;;2.90;;
11791;SDS011;5953;52.372;9.918;2023-02-01T13:18:46;7.40;;;2.50;;
11791;SDS011;5953;52.372;9.918;2023-02-01T13:21:18;8.30;;;2.07;;
11791;SDS011;5953;52.372;9.918;2023-02-01T13:23:51;6.70;;;1.93;;
11791;SDS011;5953;52.372;9.918;2023-02-01T13:26:21;8.27;;;2.20;;
11791;SDS011;5953;52.372;9.918;2023-02-01T13:28:49;6.37;;;2.20;;
11791;SDS011;5953;52.372;9.918;2023-02-01T13:31:25;5.47;;;1.73;;
11791;SDS011;5953;52.372;9.918;2023-02-01T13:37:40;5.13;;;1.80;;
11791;SDS011;5953;52.372;9.918;2023-02-01T13:40:26;5.70;;;1.23;;
11791;SDS011;5953;52.372;9.918;2023-02-01T13:43:06;1.50;;;1.20;;
11791;SDS011;5953;52.372;9.918;2023-02-01T13:45:41;4.00;;;1.40;;
11791;SDS011;5953;52.372;9.918;2023-02-01T13:50:54;5.67;;;1.10;;
11791;SDS011;5953;52.372;9.918;2023-02-01T13:53:26;3.47;;;1.20;;
11791;SDS011;5953;52.372;9.918;2023-02-01T13:55:57;2.87;;;1.20;;
11791;SDS011;5953;52.372;9.918;2023-02-01T13:58:33;2.90;;;1.27;;
11791;SDS011;5953;52.372;9.918;2023-02-01T14:04:03;1.80;;;1.07;;
11791;SDS011;5953;52.372;9.918;2023-02-01T14:06:35;3.60;;;1.60;;
11791;SDS011;5953;52.372;9.918;2023-02-01T14:09:15;4.43;;;2.23;;
11791;SDS011;5953;52.372;9.918;2023-02-01T14:11:47;2.23;;;0.60;;
11791;SDS011;5953;52.372;9.918;2023-02-01T14:23:18;1.50;;;0.40;;
11791;SDS011;5953;52.372;9.918;2023-02-01T14:26:04;1.57;;;0.60;;
11791;SDS011;5953;52.372;9.918;2023-02-01T14:28:35;2.30;;;0.63;;
11791;SDS011;5953;52.372;9.918;2023-02-01T14:34:04;1.60;;;0.50;;
11791;SDS011;5953;52.372;9.918;2023-02-01T14:36:44;2.00;;;0.67;;
11791;SDS011;5953;52.372;9.918;2023-02-01T14:39:26;1.67;;;0.50;;
11791;SDS011;5953;52.372;9.918;2023-02-01T14:41:57;2.33;;;0.70;;
11791;SDS011;5953;52.372;9.918;2023-02-01T14:44:32;1.03;;;0.40;;
11791;SDS011;5953;52.372;9.918;2023-02-01T14:47:04;1.37;;;0.40;;
11791;SDS011;5953;52.372;9.918;2023-02-01T14:49:37;1.83;;;0.60;;
11791;SDS011;5953;52.372;9.918;2023-02-01T14:52:16;1.10;;;0.90;;
11791;SDS011;5953;52.372;9.918;2023-02-01T14:54:47;2.63;;;0.77;;
11791;SDS011;5953;52.372;9.918;2023-02-01T14:57:19;1.30;;;0.73;;
11791;SDS011;5953;52.372;9.918;2023-02-01T14:59:52;4.40;;;0.80;;
11791;SDS011;5953;52.372;9.918;2023-02-01T15:02:27;2.00;;;0.83;;
11791;SDS011;5953;52.372;9.918;2023-02-01T15:04:57;1.17;;;0.70;;
11791;SDS011;5953;52.372;9.918;2023-02-01T15:07:25;1.60;;;0.67;;
11791;SDS011;5953;52.372;9.918;2023-02-01T15:09:56;1.77;;;0.70;;
11791;SDS011;5953;52.372;9.918;2023-02-01T15:12:26;2.40;;;0.90;;
11791;SDS011;5953;52.372;9.918;2023-02-01T15:17:50;2.73;;;1.07;;
11791;SDS011;5953;52.372;9.918;2023-02-01T15:20:20;5.90;;;0.90;;
11791;SDS011;5953;52.372;9.918;2023-02-01T15:22:52;4.80;;;1.20;;
11791;SDS011;5953;52.372;9.918;2023-02-01T15:25:23;4.70;;;0.77;;
11791;SDS011;5953;52.372;9.918;2023-02-01T15:27:52;3.90;;;0.93;;
11791;SDS011;5953;52.372;9.918;2023-02-01T15:30:21;4.53;;;1.60;;
11791;SDS011;5953;52.372;9.918;2023-02-01T15:32:52;3.00;;;1.33;;
11791;SDS011;5953;52.372;9.918;2023-02-01T15:35:33;2.10;;;1.13;;
11791;SDS011;5953;52.372;9.918;2023-02-01T15:38:20;5.60;;;1.00;;
11791;SDS011;5953;52.372;9.918;2023-02-01T15:40:57;4.60;;;0.90;;
11791;SDS011;5953;52.372;9.918;2023-02-01T15:43:27;4.33;;;1.17;;
11791;SDS011;5953;52.372;9.918;2023-02-01T15:45:58;5.97;;;1.23;;
11791;SDS011;5953;52.372;9.918;2023-02-01T15:48:31;5.77;;;1.20;;
11791;SDS011;5953;52.372;9.918;2023-02-01T15:51:03;5.70;;;1.10;;
11791;SDS011;5953;52.372;9.918;2023-02-01T15:53:31;3.80;;;1.27;;
11791;SDS011;5953;52.372;9.918;2023-02-01T15:56:00;4.63;;;1.47;;
11791;SDS011;5953;52.372;9.918;2023-02-01T15:58:31;3.27;;;1.43;;
11791;SDS011;5953;52.372;9.918;2023-02-01T16:01:00;3.93;;;1.47;;
11791;SDS011;5953;52.372;9.918;2023-02-01T16:03:36;3.23;;;1.77;;
11791;SDS011;5953;52.372;9.918;2023-02-01T16:06:06;6.87;;;1.80;;
11791;SDS011;5953;52.372;9.918;2023-02-01T16:08:36;9.97;;;1.80;;
11791;SDS011;5953;52.372;9.918;2023-02-01T16:11:19;6.73;;;1.57;;
11791;SDS011;5953;52.372;9.918;2023-02-01T16:13:50;10.27;;;2.67;;
11791;SDS011;5953;52.372;9.918;2023-02-01T16:16:17;9.60;;;2.30;;
11791;SDS011;5953;52.372;9.918;2023-02-01T16:18:46;6.10;;;1.57;;
11791;SDS011;5953;52.372;9.918;2023-02-01T16:21:14;7.57;;;2.03;;
11791;SDS011;5953;52.372;9.918;2023-02-01T16:23:42;7.97;;;1.70;;
11791;SDS011;5953;52.372;9.918;2023-02-01T16:26:09;9.83;;;1.60;;
11791;SDS011;5953;52.372;9.918;2023-02-01T16:28:38;6.70;;;1.67;;
11791;SDS011;5953;52.372;9.918;2023-02-01T16:31:08;7.27;;;1.90;;
11791;SDS011;5953;52.372;9.918;2023-02-01T16:33:43;7.80;;;1.77;;
11791;SDS011;5953;52.372;9.918;2023-02-01T16:36:12;7.47;;;1.90;;
11791;SDS011;5953;52.372;9.918;2023-02-01T16:38:40;9.20;;;2.27;;
11791;SDS011;5953;52.372;9.918;2023-02-01T16:41:09;6.57;;;2.40;;
11791;SDS011;5953;52.372;9.918;2023-02-01T16:43:40;8.40;;;2.33;;
11791;SDS011;5953;52.372;9.918;2023-02-01T16:46:12;7.17;;;1.87;;